Terminal Aerodrome Forecast
Issued by NWS Missoula, MT

Home | Current Version | Previous Version | Text Only | Print | Product List | Glossary On
Versions: 1 2 3 4 5 6 7 8 9 10 11 12 13 14 15
445
FTUS45 KMSO 271734
TAFGPI
TAF
KGPI 271734Z 2718/2818 02009KT P6SM SCT150
     FM272100 02008KT P6SM VCSH BKN070
     FM280200 36008KT P6SM BKN150=

USA.gov is the U.S. government's official web portal to all federal, state and local government web resources and services.